Česky Dansk Deutsch English Español Suomi Français Magyar Italiano Nederlands norsk Polski Português svenska Türkçe

 

Het Weer

Lubumbashi-Luano (Congo, The Democratic Republic of the)

11:00, 3 augustus 2016 (GMT)

NWNNE
WE
SWSSE
Home            
Lubumbashi-Luano Solwezi Mansa Ndola Kolwezi Kawambwa Kasempa Kabwe Lusaka City Airport Mwinilunga Serenje Kabompo Kamina / Base Lusaka Internationalairport Kasama Mpika Kaoma Manono Petauke Mfuwe Zambezi Mbala Kariba

Om een weerknop op uw website of weblog te plaatsen, copieer onderstaande code en plak die in uw pagina. In het eerste vakje staat HTML-code, in het tweede vakje UBB-code.


Add to Google

Details

Wind speed:2 bf, 5 kn, 2.6 m/s, 5.8 miles/h, 9.3 km/h
Wind direction:S, 180°
Visibility: 8000 m, 8.0 km, 26247 ft, 5.0 miles
Clouds:Wolkenlos at  ft,  m
Het Weer:moderate haze
Temperature:26°C, 79°F
Gefühlte Temperatur:26°C, 79°F
Dew-point:9°C, 48°F
Atmospheric pressure:1020 hPa, 765.1 mmHg, 30.12 inHg, 1.007 atm
Relative humidity:34.2 %
METAR:FZQA 031100Z 18005KT 8000 HZ SKC 26/09 Q1020 NOSIG

Snelkoppelingen

Actuele weersinformatie van de hele wereld. Voeg locaties toe met het plus (+) symbool. Deze snelkoppelingen kunnen worden toegevoegd aan Google.

Lid van de Technetium groep

website free tracking
StatCounter NetStat W3C Validator

28-11-2020 10:59:35
astro.technetium.be money.technetium.be phote.technetium.be tafeltennistafel.technetium.be www.ligfiets.net